createdAt,value
2023-02-28T00:01:33.756Z,90.11
2023-02-28T00:04:02.513Z,90.14
2023-02-28T00:06:33.924Z,90.09
2023-02-28T00:09:01.879Z,90.13
2023-02-28T00:11:30.313Z,90.17
2023-02-28T00:14:01.082Z,90.16
2023-02-28T00:16:28.898Z,90.18
2023-02-28T00:18:56.678Z,90.20
2023-02-28T00:21:26.385Z,90.24
2023-02-28T00:23:54.224Z,90.27
2023-02-28T00:26:22.152Z,90.35
2023-02-28T00:28:53.651Z,90.45
2023-02-28T00:31:21.567Z,90.51
2023-02-28T00:33:49.441Z,90.50
2023-02-28T00:36:17.179Z,90.48
2023-02-28T00:38:46.558Z,90.54
2023-02-28T00:41:14.110Z,90.49
2023-02-28T00:43:41.994Z,90.58
2023-02-28T00:46:11.647Z,90.61
2023-02-28T00:48:39.417Z,90.61
2023-02-28T00:51:07.002Z,90.62
2023-02-28T00:53:34.836Z,90.69
2023-02-28T00:56:04.604Z,90.71
2023-02-28T00:58:32.787Z,90.82
2023-02-28T01:01:00.942Z,90.83
2023-02-28T01:03:29.192Z,90.90
2023-02-28T01:05:58.114Z,90.97
2023-02-28T01:08:26.547Z,90.99
2023-02-28T01:10:54.251Z,90.99
2023-02-28T01:13:23.977Z,90.92
2023-02-28T01:15:55.888Z,90.89
2023-02-28T01:18:23.581Z,90.88
2023-02-28T01:20:52.866Z,90.88
2023-02-28T01:23:23.846Z,90.96
2023-02-28T01:25:52.422Z,90.96
2023-02-28T01:28:20.528Z,90.98
2023-02-28T01:30:51.783Z,90.96
2023-02-28T01:33:19.754Z,91.09
2023-02-28T01:35:47.332Z,91.16
2023-02-28T01:38:22.837Z,91.15
2023-02-28T01:40:47.539Z,91.34
2023-02-28T01:43:25.706Z,91.43
2023-02-28T01:45:57.865Z,91.42
2023-02-28T01:48:33.580Z,91.52
2023-02-28T01:51:06.596Z,91.53
2023-02-28T01:53:39.591Z,91.68
2023-02-28T01:56:09.749Z,91.65
2023-02-28T01:58:38.001Z,91.63
2023-02-28T02:01:05.874Z,91.66
2023-02-28T02:03:36.264Z,91.66
2023-02-28T02:06:06.320Z,91.69
2023-02-28T02:08:33.918Z,91.67
2023-02-28T02:11:03.229Z,91.67
2023-02-28T02:13:53.404Z,91.68
2023-02-28T02:16:47.447Z,91.69
2023-02-28T02:19:55.644Z,91.82
2023-02-28T02:22:46.904Z,91.77
2023-02-28T02:25:41.097Z,91.89
2023-02-28T02:28:29.259Z,91.83
2023-02-28T02:31:20.842Z,91.94
2023-02-28T02:34:09.216Z,92.06
2023-02-28T02:37:06.569Z,91.98
2023-02-28T02:39:51.281Z,92.03
2023-02-28T02:42:39.510Z,92.06
2023-02-28T02:45:24.335Z,92.12
2023-02-28T02:47:52.634Z,92.13
2023-02-28T02:50:31.425Z,92.10
2023-02-28T02:53:02.340Z,92.13
2023-02-28T02:55:34.953Z,92.06
2023-02-28T02:58:07.308Z,92.14
2023-02-28T03:00:39.557Z,92.10
2023-02-28T03:03:10.516Z,92.12
2023-02-28T03:05:50.895Z,92.14
2023-02-28T03:08:18.833Z,92.16
2023-02-28T03:10:52.740Z,92.20
2023-02-28T03:13:42.514Z,92.14
2023-02-28T03:16:35.105Z,92.16
2023-02-28T03:19:27.774Z,92.25
2023-02-28T03:22:35.531Z,92.28
2023-02-28T03:25:35.015Z,92.33
2023-02-28T03:28:29.248Z,92.39
2023-02-28T03:31:09.661Z,92.45
2023-02-28T03:34:06.851Z,92.46
2023-02-28T03:36:54.017Z,92.50
2023-02-28T03:39:27.024Z,92.45
2023-02-28T03:42:00.415Z,92.40
2023-02-28T03:44:47.530Z,92.40
2023-02-28T03:47:20.606Z,92.42
2023-02-28T03:49:53.749Z,92.39
2023-02-28T03:52:26.543Z,92.38
2023-02-28T03:55:00.702Z,92.42
2023-02-28T03:58:07.058Z,92.29
2023-02-28T04:00:42.868Z,92.22
2023-02-28T04:03:10.508Z,92.14
2023-02-28T04:05:56.580Z,92.12
2023-02-28T04:08:24.188Z,92.02
2023-02-28T04:11:21.390Z,91.99
2023-02-28T04:13:49.098Z,91.97
2023-02-28T04:16:33.366Z,91.95
2023-02-28T04:18:46.805Z,91.92
2023-02-28T04:21:14.767Z,91.80
2023-02-28T04:23:42.307Z,91.76
2023-02-28T04:26:10.018Z,91.72
2023-02-28T04:28:38.985Z,91.71
2023-02-28T04:31:06.952Z,91.71
2023-02-28T04:33:34.908Z,91.70
2023-02-28T04:36:07.706Z,91.66
2023-02-28T04:38:38.418Z,91.65
2023-02-28T04:41:06.894Z,91.54
2023-02-28T04:43:34.659Z,91.53
2023-02-28T04:46:05.317Z,91.52
2023-02-28T04:48:37.001Z,91.43
2023-02-28T04:51:09.196Z,91.28
2023-02-28T04:53:39.569Z,91.23
2023-02-28T04:56:09.473Z,91.12
2023-02-28T04:58:37.937Z,90.98
2023-02-28T05:01:25.948Z,90.89
2023-02-28T05:03:56.782Z,90.74
2023-02-28T05:06:27.690Z,90.68
2023-02-28T05:08:55.878Z,90.58
2023-02-28T05:11:33.347Z,90.53
2023-02-28T05:14:02.900Z,90.38
2023-02-28T05:16:30.992Z,90.32
2023-02-28T05:18:59.131Z,90.18
2023-02-28T05:21:36.156Z,90.11
2023-02-28T05:24:08.478Z,90.02
2023-02-28T05:26:40.161Z,89.95
2023-02-28T05:29:08.280Z,89.85
2023-02-28T05:31:36.726Z,89.64
2023-02-28T05:34:04.707Z,89.52
2023-02-28T05:36:32.426Z,89.73
2023-02-28T05:39:00.938Z,89.84
2023-02-28T05:41:29.284Z,89.91
2023-02-28T05:44:00.231Z,89.85
2023-02-28T05:46:28.324Z,89.88
2023-02-28T05:48:58.062Z,89.87
2023-02-28T05:51:25.700Z,89.92
2023-02-28T05:53:53.736Z,89.86
2023-02-28T05:56:22.582Z,89.65
2023-02-28T05:58:50.237Z,89.77
2023-02-28T06:01:35.989Z,89.81
2023-02-28T06:04:05.295Z,89.64
2023-02-28T06:06:36.913Z,89.61
2023-02-28T06:09:05.898Z,89.60
2023-02-28T06:11:34.221Z,89.57
2023-02-28T06:14:03.210Z,89.46
2023-02-28T06:16:33.454Z,89.50
2023-02-28T06:19:04.348Z,89.50
2023-02-28T06:21:32.873Z,89.39
2023-02-28T06:24:00.941Z,89.30
2023-02-28T06:26:29.205Z,89.21
2023-02-28T06:28:59.665Z,89.27
2023-02-28T06:31:30.513Z,89.21
2023-02-28T06:34:00.497Z,89.35
2023-02-28T06:36:28.332Z,88.95
2023-02-28T06:38:56.588Z,89.00
2023-02-28T06:41:26.767Z,89.02
2023-02-28T06:43:54.792Z,88.98
2023-02-28T06:46:23.585Z,88.31
2023-02-28T06:48:51.690Z,88.47
2023-02-28T06:51:22.955Z,88.30
2023-02-28T06:53:51.949Z,88.20
2023-02-28T06:56:21.548Z,87.76
2023-02-28T06:58:52.164Z,87.40
2023-02-28T07:01:20.382Z,86.73
2023-02-28T07:03:50.378Z,86.72
2023-02-28T07:06:19.039Z,86.81
2023-02-28T07:08:46.725Z,86.66
2023-02-28T07:11:24.206Z,86.80
2023-02-28T07:13:56.912Z,86.27
2023-02-28T07:16:27.331Z,85.89
2023-02-28T07:18:56.310Z,85.60
2023-02-28T07:21:25.227Z,85.27
2023-02-28T07:23:54.587Z,84.96
2023-02-28T07:26:26.153Z,85.47
2023-02-28T07:28:54.945Z,84.44
2023-02-28T07:31:27.152Z,84.79
2023-02-28T07:34:01.096Z,84.45
2023-02-28T07:36:29.438Z,84.11
2023-02-28T07:38:57.276Z,82.30
2023-02-28T07:41:27.376Z,82.74
2023-02-28T07:44:52.157Z,82.67
2023-02-28T07:47:25.553Z,82.45
2023-02-28T07:49:53.504Z,82.08
2023-02-28T07:52:21.215Z,81.84
2023-02-28T07:54:56.880Z,81.65
2023-02-28T07:57:26.014Z,81.83
2023-02-28T07:59:54.151Z,81.12
2023-02-28T08:02:28.179Z,79.81
2023-02-28T08:04:56.842Z,78.80
2023-02-28T08:07:24.604Z,79.77
2023-02-28T08:09:52.271Z,79.01
2023-02-28T08:12:20.453Z,78.00
2023-02-28T08:14:48.292Z,78.65
2023-02-28T08:17:16.275Z,78.32
2023-02-28T08:19:46.756Z,78.77
2023-02-28T08:22:14.672Z,78.78
2023-02-28T08:24:44.191Z,78.45
2023-02-28T08:27:12.098Z,78.34
2023-02-28T08:29:47.763Z,77.99
2023-02-28T08:32:29.694Z,77.76
2023-02-28T08:34:51.787Z,77.08
2023-02-28T08:37:19.712Z,76.57
2023-02-28T08:39:47.621Z,76.36
2023-02-28T08:42:15.329Z,76.29
2023-02-28T08:44:43.150Z,75.98
2023-02-28T08:47:11.666Z,75.32
2023-02-28T08:49:39.682Z,75.53
2023-02-28T08:52:07.908Z,75.96
2023-02-28T08:54:37.062Z,75.61
2023-02-28T08:57:04.895Z,76.04
2023-02-28T08:59:33.022Z,75.71
2023-02-28T09:02:00.974Z,75.59
2023-02-28T09:04:30.466Z,74.36
2023-02-28T09:06:59.435Z,73.27
2023-02-28T09:09:27.381Z,73.07
2023-02-28T09:11:57.306Z,72.87
2023-02-28T09:14:29.420Z,67.91
2023-02-28T09:17:00.715Z,67.42
2023-02-28T09:19:28.347Z,67.29
2023-02-28T09:21:56.339Z,65.81
2023-02-28T09:24:24.263Z,64.21
2023-02-28T09:27:03.887Z,63.01
2023-02-28T09:29:21.609Z,65.38
2023-02-28T09:31:50.214Z,66.24
2023-02-28T09:34:18.073Z,65.97
2023-02-28T09:36:46.912Z,65.46
2023-02-28T09:39:17.819Z,63.27
2023-02-28T09:41:50.533Z,62.35
2023-02-28T09:44:35.512Z,62.17
2023-02-28T09:47:20.757Z,62.49
2023-02-28T09:49:49.994Z,63.64
2023-02-28T09:52:26.266Z,64.44
2023-02-28T09:54:54.098Z,64.38
2023-02-28T09:57:41.129Z,63.46
2023-02-28T10:00:23.241Z,63.43
2023-02-28T10:03:11.727Z,63.15
2023-02-28T10:05:57.255Z,62.47
2023-02-28T10:08:36.655Z,62.46
2023-02-28T10:11:09.627Z,60.05
2023-02-28T10:13:51.064Z,60.17
2023-02-28T10:16:31.092Z,61.85
2023-02-28T10:19:26.879Z,61.25
2023-02-28T10:25:26.822Z,62.04
2023-02-28T10:28:01.123Z,62.68
2023-02-28T10:30:30.041Z,61.89
2023-02-28T10:32:58.085Z,61.16
2023-02-28T10:35:27.489Z,60.88
2023-02-28T10:37:58.840Z,62.42
2023-02-28T10:40:32.046Z,61.58
2023-02-28T10:43:17.411Z,60.59
2023-02-28T10:45:59.774Z,59.81
2023-02-28T10:48:38.120Z,60.49
2023-02-28T10:51:16.326Z,59.65
2023-02-28T10:54:01.534Z,60.06
2023-02-28T10:56:24.898Z,59.50
2023-02-28T10:58:57.746Z,59.11
2023-02-28T11:01:42.154Z,58.36
2023-02-28T11:04:29.975Z,58.78
2023-02-28T11:07:04.076Z,60.40
2023-02-28T11:09:37.208Z,59.52
2023-02-28T11:12:09.534Z,59.20
2023-02-28T11:14:45.612Z,59.48
2023-02-28T11:17:24.900Z,59.53
2023-02-28T11:19:59.984Z,59.76
2023-02-28T11:22:32.232Z,60.29
2023-02-28T11:25:18.112Z,60.30
2023-02-28T11:27:53.198Z,60.10
2023-02-28T11:30:41.388Z,59.96
2023-02-28T11:33:51.423Z,59.05
2023-02-28T11:36:29.172Z,59.06
2023-02-28T11:39:08.524Z,59.36
2023-02-28T11:41:54.307Z,59.57
2023-02-28T11:44:35.347Z,59.67
2023-02-28T11:47:45.827Z,58.66
2023-02-28T11:50:52.627Z,59.46
2023-02-28T11:53:27.343Z,57.36
2023-02-28T11:56:11.791Z,58.18
2023-02-28T11:58:57.513Z,58.47
2023-02-28T12:02:05.545Z,57.92
2023-02-28T12:05:00.161Z,59.53
2023-02-28T12:07:39.134Z,60.01
2023-02-28T12:10:26.623Z,59.67
2023-02-28T12:13:30.528Z,59.59
2023-02-28T12:16:29.991Z,59.96
2023-02-28T12:19:12.696Z,60.28
2023-02-28T12:22:23.051Z,60.20
2023-02-28T12:24:56.376Z,59.96
2023-02-28T12:27:28.215Z,60.15
2023-02-28T12:30:22.991Z,60.46
2023-02-28T12:33:05.397Z,59.78
2023-02-28T12:35:41.819Z,60.71
2023-02-28T12:38:23.611Z,60.44
2023-02-28T12:41:07.538Z,61.14
2023-02-28T12:43:45.785Z,60.55
2023-02-28T12:46:42.371Z,61.18
2023-02-28T12:49:15.638Z,60.96
2023-02-28T12:51:47.853Z,60.54
2023-02-28T12:54:21.144Z,60.82
2023-02-28T12:57:20.773Z,60.05
2023-02-28T12:59:57.036Z,60.29
2023-02-28T13:03:02.267Z,60.09
2023-02-28T13:06:07.024Z,60.33
2023-02-28T13:09:01.066Z,59.94
2023-02-28T13:11:43.253Z,59.94
2023-02-28T13:14:35.194Z,60.23
2023-02-28T13:17:13.627Z,60.19
2023-02-28T13:19:55.486Z,60.19
2023-02-28T13:22:43.659Z,60.17
2023-02-28T13:25:44.983Z,59.24
2023-02-28T13:28:15.183Z,59.53
2023-02-28T13:30:59.541Z,59.43
2023-02-28T13:33:40.179Z,59.35
2023-02-28T13:36:23.396Z,59.07
2023-02-28T13:39:05.908Z,59.19
2023-02-28T13:41:44.892Z,57.93
2023-02-28T13:44:27.444Z,58.13
2023-02-28T13:47:02.172Z,58.14
2023-02-28T13:49:37.553Z,58.83
2023-02-28T13:52:18.233Z,58.44
2023-02-28T13:55:21.344Z,58.60
2023-02-28T13:58:06.704Z,58.68
2023-02-28T14:01:09.839Z,58.90
2023-02-28T14:04:02.146Z,59.34
2023-02-28T14:06:38.066Z,59.44
2023-02-28T14:09:26.447Z,59.44
2023-02-28T14:11:56.232Z,59.78
2023-02-28T14:14:41.319Z,59.66
2023-02-28T14:17:16.136Z,59.92
2023-02-28T14:19:50.016Z,59.66
2023-02-28T14:22:49.155Z,59.99
2023-02-28T14:25:40.771Z,60.08
2023-02-28T14:28:28.759Z,60.53
2023-02-28T14:31:12.087Z,60.91
2023-02-28T14:34:19.529Z,61.07
2023-02-28T14:36:49.459Z,61.30
2023-02-28T14:39:23.742Z,61.67
2023-02-28T14:41:52.472Z,61.68
2023-02-28T14:44:28.643Z,61.85
2023-02-28T14:47:00.141Z,61.91
2023-02-28T14:49:40.073Z,62.12
2023-02-28T14:52:22.464Z,62.44
2023-02-28T14:54:57.481Z,62.88
2023-02-28T14:57:32.507Z,62.86
2023-02-28T15:00:30.266Z,63.11
2023-02-28T15:03:01.305Z,63.23
2023-02-28T15:05:35.434Z,63.46
2023-02-28T15:08:17.105Z,63.69
2023-02-28T15:10:55.301Z,63.96
2023-02-28T15:13:26.598Z,64.17
2023-02-28T15:16:03.501Z,64.31
2023-02-28T15:18:45.593Z,64.51
2023-02-28T15:21:19.169Z,64.80
2023-02-28T15:24:00.638Z,65.14
2023-02-28T15:26:36.862Z,65.58
2023-02-28T15:29:12.874Z,65.74
2023-02-28T15:31:57.349Z,65.79
2023-02-28T15:34:28.516Z,66.00
2023-02-28T15:36:54.500Z,66.20
2023-02-28T15:39:27.990Z,66.33
2023-02-28T15:42:14.117Z,66.51
2023-02-28T15:44:42.062Z,66.69
2023-02-28T15:47:25.630Z,66.84
2023-02-28T15:49:59.254Z,67.05
2023-02-28T15:52:42.632Z,67.22
2023-02-28T15:55:24.312Z,67.48
2023-02-28T15:57:58.434Z,67.55
2023-02-28T16:00:29.291Z,67.74
2023-02-28T16:02:57.403Z,67.96
2023-02-28T16:05:32.278Z,68.07
2023-02-28T16:08:14.177Z,68.20
2023-02-28T16:10:42.081Z,68.32
2023-02-28T16:13:14.354Z,68.49
2023-02-28T16:15:45.020Z,68.56
2023-02-28T16:18:13.676Z,68.72
2023-02-28T16:20:42.297Z,68.93
2023-02-28T16:23:10.371Z,68.94
2023-02-28T16:25:41.621Z,69.07
2023-02-28T16:28:23.989Z,69.16
2023-02-28T16:30:54.109Z,69.40
2023-02-28T16:33:22.202Z,69.34
2023-02-28T16:35:54.676Z,69.50
2023-02-28T16:38:24.250Z,69.54
2023-02-28T16:40:54.884Z,69.59
2023-02-28T16:43:26.878Z,69.74
2023-02-28T16:46:01.390Z,69.80
2023-02-28T16:48:31.385Z,69.93
2023-02-28T16:50:59.630Z,70.04
2023-02-28T16:53:27.512Z,70.20
2023-02-28T16:55:55.365Z,70.29
2023-02-28T16:58:25.491Z,70.48
2023-02-28T17:00:54.010Z,70.96
2023-02-28T17:03:33.840Z,71.19
2023-02-28T17:05:58.827Z,71.37
2023-02-28T17:08:29.780Z,71.34
2023-02-28T17:10:58.699Z,71.76
2023-02-28T17:13:27.390Z,71.71
2023-02-28T17:15:56.504Z,71.76
2023-02-28T17:18:24.700Z,71.75
2023-02-28T17:20:56.604Z,71.79
2023-02-28T17:23:26.586Z,71.79
2023-02-28T17:25:57.896Z,71.87
2023-02-28T17:28:29.086Z,71.90
2023-02-28T17:30:58.582Z,71.93
2023-02-28T17:33:26.609Z,72.16
2023-02-28T17:35:54.433Z,72.21
2023-02-28T17:38:23.471Z,72.29
2023-02-28T17:40:53.390Z,72.39
2023-02-28T17:43:21.251Z,72.52
2023-02-28T17:45:48.969Z,72.66
2023-02-28T17:48:17.359Z,72.64
2023-02-28T17:50:45.335Z,72.74
2023-02-28T17:53:13.377Z,72.67
2023-02-28T17:55:41.111Z,72.68
2023-02-28T17:58:13.059Z,72.73
2023-02-28T18:00:41.557Z,72.85
2023-02-28T18:03:10.094Z,72.92
2023-02-28T18:05:38.219Z,73.01
2023-02-28T18:08:06.267Z,73.06
2023-02-28T18:10:33.915Z,73.20
2023-02-28T18:13:01.632Z,73.32
2023-02-28T18:15:29.963Z,73.40
2023-02-28T18:17:58.053Z,73.50
2023-02-28T18:20:26.467Z,73.55
2023-02-28T18:22:54.518Z,73.70
2023-02-28T18:25:22.985Z,73.70
2023-02-28T18:27:53.702Z,73.86
2023-02-28T18:30:22.158Z,73.99
2023-02-28T18:32:50.248Z,74.03
2023-02-28T18:35:20.873Z,74.13
2023-02-28T18:37:49.148Z,74.21
2023-02-28T18:40:17.378Z,74.30
2023-02-28T18:42:48.569Z,74.33
2023-02-28T18:45:19.509Z,74.41
2023-02-28T18:47:47.928Z,74.52
2023-02-28T18:50:16.293Z,74.55
2023-02-28T18:52:44.278Z,74.58
2023-02-28T18:55:13.974Z,74.60
2023-02-28T18:57:42.097Z,74.65
2023-02-28T19:00:12.625Z,74.70
2023-02-28T19:02:43.088Z,74.69
2023-02-28T19:05:15.965Z,74.62
2023-02-28T19:07:43.863Z,74.74
2023-02-28T19:10:13.190Z,74.86
2023-02-28T19:12:45.900Z,74.86
2023-02-28T19:15:13.880Z,74.99
2023-02-28T19:17:47.436Z,75.04
2023-02-28T19:20:26.267Z,75.15
2023-02-28T19:23:01.748Z,75.28
2023-02-28T19:25:29.644Z,75.38
2023-02-28T19:28:01.132Z,75.48
2023-02-28T19:30:34.426Z,75.62
2023-02-28T19:33:02.575Z,75.70
2023-02-28T19:35:30.646Z,75.77
2023-02-28T19:37:59.822Z,75.86
2023-02-28T19:40:33.339Z,75.93
2023-02-28T19:43:04.268Z,76.01
2023-02-28T19:45:37.485Z,76.10
2023-02-28T19:48:18.004Z,76.16
2023-02-28T19:50:46.323Z,76.15
2023-02-28T19:53:16.266Z,76.21
2023-02-28T19:55:47.288Z,76.39
2023-02-28T19:58:17.436Z,76.50
2023-02-28T20:00:47.032Z,76.47
2023-02-28T20:03:17.634Z,76.60
2023-02-28T20:05:46.767Z,76.64
2023-02-28T20:08:14.669Z,76.79
2023-02-28T20:10:42.572Z,76.91
2023-02-28T20:13:10.711Z,76.91
2023-02-28T20:15:38.821Z,77.05
2023-02-28T20:18:10.260Z,77.23
2023-02-28T20:20:40.370Z,77.23
2023-02-28T20:23:08.754Z,77.28
2023-02-28T20:25:40.501Z,77.42
2023-02-28T20:28:08.593Z,77.51
2023-02-28T20:30:42.197Z,77.61
2023-02-28T20:33:10.319Z,77.60
2023-02-28T20:35:41.532Z,77.59
2023-02-28T20:38:11.418Z,77.61
2023-02-28T20:40:39.259Z,77.66
2023-02-28T20:43:08.979Z,77.78
2023-02-28T20:45:37.040Z,77.87
2023-02-28T20:48:04.866Z,77.97
2023-02-28T20:50:33.516Z,78.10
2023-02-28T20:53:01.497Z,78.26
2023-02-28T20:55:29.919Z,78.37
2023-02-28T20:57:58.077Z,78.41
2023-02-28T21:00:26.244Z,78.47
2023-02-28T21:02:54.114Z,78.26
2023-02-28T21:05:22.326Z,78.28
2023-02-28T21:07:50.746Z,78.22
2023-02-28T21:10:18.889Z,78.41
2023-02-28T21:12:50.358Z,78.58
2023-02-28T21:15:18.203Z,78.82
2023-02-28T21:17:47.685Z,78.85
2023-02-28T21:20:17.913Z,78.90
2023-02-28T21:22:45.493Z,78.99
2023-02-28T21:25:14.309Z,79.12
2023-02-28T21:27:42.843Z,79.24
2023-02-28T21:30:11.530Z,79.24
2023-02-28T21:32:39.810Z,79.33
2023-02-28T21:35:08.478Z,79.43
2023-02-28T21:37:39.252Z,79.55
2023-02-28T21:40:08.520Z,79.61
2023-02-28T21:42:36.793Z,79.70
2023-02-28T21:45:07.663Z,79.84
2023-02-28T21:47:35.740Z,79.99
2023-02-28T21:50:03.705Z,80.04
2023-02-28T21:52:31.497Z,80.06
2023-02-28T21:54:59.523Z,80.13
2023-02-28T21:57:27.539Z,80.23
2023-02-28T21:59:56.513Z,80.34
2023-02-28T22:02:24.477Z,80.56
2023-02-28T22:04:52.982Z,80.60
2023-02-28T22:07:20.786Z,80.62
2023-02-28T22:09:48.888Z,80.76
2023-02-28T22:12:17.128Z,80.80
2023-02-28T22:14:45.791Z,80.85
2023-02-28T22:17:13.810Z,80.90
2023-02-28T22:19:41.869Z,81.03
2023-02-28T22:22:12.593Z,81.07
2023-02-28T22:24:40.475Z,81.14
2023-02-28T22:27:09.098Z,81.17
2023-02-28T22:29:37.845Z,81.23
2023-02-28T22:32:09.608Z,81.39
2023-02-28T22:34:37.978Z,81.53
2023-02-28T22:37:06.697Z,81.65
2023-02-28T22:39:34.721Z,81.67
2023-02-28T22:42:02.852Z,81.79
2023-02-28T22:44:33.522Z,81.93
2023-02-28T22:47:01.697Z,81.94
2023-02-28T22:49:29.635Z,82.04
2023-02-28T22:51:57.518Z,81.96
2023-02-28T22:54:27.133Z,81.97
2023-02-28T22:56:55.113Z,82.08
2023-02-28T22:59:22.871Z,82.09
2023-02-28T23:01:50.718Z,82.23
2023-02-28T23:04:19.370Z,82.39
2023-02-28T23:06:47.621Z,82.49
2023-02-28T23:09:20.975Z,82.60
2023-02-28T23:11:51.260Z,82.46
2023-02-28T23:14:21.115Z,82.58
2023-02-28T23:16:55.753Z,82.71
2023-02-28T23:19:31.775Z,82.71
2023-02-28T23:22:01.569Z,82.81
2023-02-28T23:24:33.626Z,82.89
2023-02-28T23:27:05.247Z,83.02
2023-02-28T23:29:34.651Z,83.24
2023-02-28T23:32:03.428Z,83.28
2023-02-28T23:34:31.645Z,83.29
2023-02-28T23:37:01.258Z,83.35
2023-02-28T23:39:31.185Z,83.43
2023-02-28T23:41:59.668Z,83.50
2023-02-28T23:44:27.562Z,83.61
2023-02-28T23:46:55.571Z,83.61
2023-02-28T23:49:23.263Z,83.60
2023-02-28T23:51:53.844Z,83.66
2023-02-28T23:54:21.676Z,83.70
2023-02-28T23:56:50.084Z,83.61
2023-02-28T23:59:17.924Z,83.70
